sensor_id;sensor_type;location;lat;lon;timestamp;pressure;altitude;pressure_sealevel;temperature;humidity
60417;BME280;46263;44.726;10.396;2023-05-10T00:01:03;100129.63;;;18.60;70.54
60417;BME280;46263;44.726;10.396;2023-05-10T00:03:29;100137.34;;;18.42;71.28
60417;BME280;46263;44.726;10.396;2023-05-10T00:05:54;100142.19;;;18.33;71.13
60417;BME280;46263;44.726;10.396;2023-05-10T00:08:20;100132.34;;;18.34;70.83
60417;BME280;46263;44.726;10.396;2023-05-10T00:10:45;100125.72;;;18.39;71.49
60417;BME280;46263;44.726;10.396;2023-05-10T00:13:11;100124.72;;;18.43;71.60
60417;BME280;46263;44.726;10.396;2023-05-10T00:15:36;100113.72;;;18.47;72.03
60417;BME280;46263;44.726;10.396;2023-05-10T00:18:02;100112.22;;;18.46;71.65
60417;BME280;46263;44.726;10.396;2023-05-10T00:20:27;100129.53;;;18.50;72.26
60417;BME280;46263;44.726;10.396;2023-05-10T00:22:53;100120.72;;;18.46;72.15
60417;BME280;46263;44.726;10.396;2023-05-10T00:25:18;100123.56;;;18.46;72.78
60417;BME280;46263;44.726;10.396;2023-05-10T00:27:43;100127.03;;;18.54;71.96
60417;BME280;46263;44.726;10.396;2023-05-10T00:30:09;100110.38;;;18.58;71.97
60417;BME280;46263;44.726;10.396;2023-05-10T00:32:35;100096.22;;;18.58;71.55
60417;BME280;46263;44.726;10.396;2023-05-10T00:35:00;100073.56;;;18.58;71.85
60417;BME280;46263;44.726;10.396;2023-05-10T00:37:26;100066.81;;;18.54;72.31
60417;BME280;46263;44.726;10.396;2023-05-10T00:39:51;100071.03;;;18.53;71.88
60417;BME280;46263;44.726;10.396;2023-05-10T00:42:16;100078.91;;;18.54;70.56
60417;BME280;46263;44.726;10.396;2023-05-10T00:44:42;100081.41;;;18.50;70.92
60417;BME280;46263;44.726;10.396;2023-05-10T00:47:08;100082.59;;;18.47;70.90
60417;BME280;46263;44.726;10.396;2023-05-10T00:49:34;100088.44;;;18.49;71.38
60417;BME280;46263;44.726;10.396;2023-05-10T00:52:00;100078.44;;;18.48;71.76
60417;BME280;46263;44.726;10.396;2023-05-10T00:54:27;100074.41;;;18.51;71.45
60417;BME280;46263;44.726;10.396;2023-05-10T00:56:52;100064.00;;;18.54;71.07
60417;BME280;46263;44.726;10.396;2023-05-10T00:59:18;100069.09;;;18.55;72.13
60417;BME280;46263;44.726;10.396;2023-05-10T01:01:45;100066.25;;;18.55;71.74
60417;BME280;46263;44.726;10.396;2023-05-10T01:04:11;100061.50;;;18.58;71.51
60417;BME280;46263;44.726;10.396;2023-05-10T01:06:39;100063.75;;;18.59;71.00
60417;BME280;46263;44.726;10.396;2023-05-10T01:09:05;100063.75;;;18.59;71.60
60417;BME280;46263;44.726;10.396;2023-05-10T01:11:33;100063.75;;;18.59;71.28
60417;BME280;46263;44.726;10.396;2023-05-10T01:13:59;100056.44;;;18.56;71.19
60417;BME280;46263;44.726;10.396;2023-05-10T01:16:24;100059.09;;;18.54;71.50
60417;BME280;46263;44.726;10.396;2023-05-10T01:18:52;100059.09;;;18.54;71.64
60417;BME280;46263;44.726;10.396;2023-05-10T01:21:22;100059.09;;;18.54;71.03
60417;BME280;46263;44.726;10.396;2023-05-10T01:34:55;100078.56;;;18.50;71.99
60417;BME280;46263;44.726;10.396;2023-05-10T01:37:52;100074.41;;;18.51;71.26
60417;BME280;46263;44.726;10.396;2023-05-10T01:40:31;100082.91;;;18.51;71.26
60417;BME280;46263;44.726;10.396;2023-05-10T01:43:04;100078.56;;;18.50;71.78
60417;BME280;46263;44.726;10.396;2023-05-10T01:45:47;100055.63;;;18.46;71.86
60417;BME280;46263;44.726;10.396;2023-05-10T01:48:17;100045.63;;;18.45;71.68
60417;BME280;46263;44.726;10.396;2023-05-10T01:50:45;100056.94;;;18.45;72.02
60417;BME280;46263;44.726;10.396;2023-05-10T01:53:12;100057.78;;;18.39;72.90
60417;BME280;46263;44.726;10.396;2023-05-10T01:55:51;100059.13;;;18.38;72.27
60417;BME280;46263;44.726;10.396;2023-05-10T01:58:23;100063.28;;;18.37;72.93
60417;BME280;46263;44.726;10.396;2023-05-10T02:00:51;100060.63;;;18.39;71.89
60417;BME280;46263;44.726;10.396;2023-05-10T02:03:23;100060.63;;;18.39;72.63
60417;BME280;46263;44.726;10.396;2023-05-10T02:05:50;100053.28;;;18.36;72.45
60417;BME280;46263;44.726;10.396;2023-05-10T02:08:18;100055.56;;;18.37;72.21
60417;BME280;46263;44.726;10.396;2023-05-10T02:10:45;100058.78;;;18.34;72.16
60417;BME280;46263;44.726;10.396;2023-05-10T02:13:12;100053.28;;;18.36;72.38
60417;BME280;46263;44.726;10.396;2023-05-10T02:15:40;100048.13;;;18.41;72.12
60417;BME280;46263;44.726;10.396;2023-05-10T02:18:07;100048.88;;;18.42;72.06
60417;BME280;46263;44.726;10.396;2023-05-10T02:20:34;100043.47;;;18.37;71.88
60417;BME280;46263;44.726;10.396;2023-05-10T02:23:01;100051.22;;;18.36;72.10
60417;BME280;46263;44.726;10.396;2023-05-10T02:25:28;100045.56;;;18.36;72.34
60417;BME280;46263;44.726;10.396;2023-05-10T02:27:56;100037.81;;;18.37;72.04
60417;BME280;46263;44.726;10.396;2023-05-10T02:30:23;100037.63;;;18.35;72.49
60417;BME280;46263;44.726;10.396;2023-05-10T02:32:50;100033.00;;;18.30;72.39
60417;BME280;46263;44.726;10.396;2023-05-10T02:35:16;100030.47;;;18.34;71.84
60417;BME280;46263;44.726;10.396;2023-05-10T02:37:43;100031.66;;;18.31;72.20
60417;BME280;46263;44.726;10.396;2023-05-10T02:40:10;100030.16;;;18.30;71.72
60417;BME280;46263;44.726;10.396;2023-05-10T02:42:37;100029.44;;;18.29;71.89
60417;BME280;46263;44.726;10.396;2023-05-10T02:45:16;100024.50;;;18.30;72.41
60417;BME280;46263;44.726;10.396;2023-05-10T02:47:42;100028.66;;;18.29;72.41
60417;BME280;46263;44.726;10.396;2023-05-10T02:50:09;100024.16;;;18.26;72.21
60417;BME280;46263;44.726;10.396;2023-05-10T02:52:47;100023.78;;;18.29;72.43
60417;BME280;46263;44.726;10.396;2023-05-10T02:55:16;100015.69;;;18.26;72.15
60417;BME280;46263;44.726;10.396;2023-05-10T02:57:58;100020.00;;;18.27;72.71
60417;BME280;46263;44.726;10.396;2023-05-10T03:00:25;100021.75;;;18.22;72.44
60417;BME280;46263;44.726;10.396;2023-05-10T03:02:50;100020.81;;;18.20;72.38
60417;BME280;46263;44.726;10.396;2023-05-10T03:05:16;100014.09;;;18.15;72.51
60417;BME280;46263;44.726;10.396;2023-05-10T03:07:42;100015.00;;;18.18;72.78
60417;BME280;46263;44.726;10.396;2023-05-10T03:10:08;100008.13;;;18.11;72.98
60417;BME280;46263;44.726;10.396;2023-05-10T03:15:37;100018.34;;;18.07;72.45
60417;BME280;46263;44.726;10.396;2023-05-10T03:18:16;100015.53;;;18.07;72.21
60417;BME280;46263;44.726;10.396;2023-05-10T03:20:47;100003.63;;;18.08;71.80
60417;BME280;46263;44.726;10.396;2023-05-10T03:23:21;100005.19;;;18.02;72.44
60417;BME280;46263;44.726;10.396;2023-05-10T03:25:48;100005.38;;;18.04;73.03
60417;BME280;46263;44.726;10.396;2023-05-10T03:28:16;100008.97;;;18.04;72.37
60417;BME280;46263;44.726;10.396;2023-05-10T03:30:43;100010.03;;;18.09;72.24
60417;BME280;46263;44.726;10.396;2023-05-10T03:33:10;100005.53;;;18.06;72.46
60417;BME280;46263;44.726;10.396;2023-05-10T03:35:36;100002.22;;;18.00;72.11
60417;BME280;46263;44.726;10.396;2023-05-10T03:38:01;100011.63;;;18.02;72.02
60417;BME280;46263;44.726;10.396;2023-05-10T03:40:28;100006.56;;;18.01;72.46
60417;BME280;46263;44.726;10.396;2023-05-10T03:43:00;100008.31;;;17.96;71.81
60417;BME280;46263;44.726;10.396;2023-05-10T03:45:26;100002.88;;;17.91;72.60
60417;BME280;46263;44.726;10.396;2023-05-10T03:47:51;100004.22;;;17.90;72.48
60417;BME280;46263;44.726;10.396;2023-05-10T03:50:17;100012.22;;;17.84;72.01
60417;BME280;46263;44.726;10.396;2023-05-10T03:52:43;100013.72;;;17.85;72.30
60417;BME280;46263;44.726;10.396;2023-05-10T03:55:09;100015.19;;;17.86;72.28
60417;BME280;46263;44.726;10.396;2023-05-10T03:57:35;100012.22;;;17.84;72.24
60417;BME280;46263;44.726;10.396;2023-05-10T04:00:00;100008.06;;;17.85;71.98
60417;BME280;46263;44.726;10.396;2023-05-10T04:02:26;100005.06;;;17.83;72.72
60417;BME280;46263;44.726;10.396;2023-05-10T04:04:51;100005.63;;;17.81;72.72
60417;BME280;46263;44.726;10.396;2023-05-10T04:07:17;100000.13;;;17.83;72.23
60417;BME280;46263;44.726;10.396;2023-05-10T04:09:43;99999.41;;;17.83;72.32
60417;BME280;46263;44.726;10.396;2023-05-10T04:12:08;100005.47;;;17.79;72.58
60417;BME280;46263;44.726;10.396;2023-05-10T04:14:35;100011.53;;;17.76;72.22
60417;BME280;46263;44.726;10.396;2023-05-10T04:17:00;100001.22;;;17.71;71.85
60417;BME280;46263;44.726;10.396;2023-05-10T04:19:31;100007.47;;;17.69;72.08
60417;BME280;46263;44.726;10.396;2023-05-10T04:21:58;100008.78;;;17.68;72.01
60417;BME280;46263;44.726;10.396;2023-05-10T04:24:23;100005.47;;;17.62;72.35
60417;BME280;46263;44.726;10.396;2023-05-10T04:26:49;100005.03;;;17.66;71.93
60417;BME280;46263;44.726;10.396;2023-05-10T04:29:14;100005.47;;;17.62;72.01
60417;BME280;46263;44.726;10.396;2023-05-10T04:31:40;99998.31;;;17.61;71.78
60417;BME280;46263;44.726;10.396;2023-05-10T04:34:06;99999.03;;;17.62;72.21
60417;BME280;46263;44.726;10.396;2023-05-10T04:36:31;100001.31;;;17.63;72.21
60417;BME280;46263;44.726;10.396;2023-05-10T04:38:59;100010.19;;;17.60;71.90
60417;BME280;46263;44.726;10.396;2023-05-10T04:41:24;100006.78;;;17.61;71.99
60417;BME280;46263;44.726;10.396;2023-05-10T04:43:50;100008.28;;;17.62;72.43
60417;BME280;46263;44.726;10.396;2023-05-10T04:46:16;100010.19;;;17.60;72.84
60417;BME280;46263;44.726;10.396;2023-05-10T04:48:41;100014.69;;;17.63;72.41
60417;BME280;46263;44.726;10.396;2023-05-10T04:51:07;100013.19;;;17.62;72.30
60417;BME280;46263;44.726;10.396;2023-05-10T04:53:32;100006.03;;;17.61;72.44
60417;BME280;46263;44.726;10.396;2023-05-10T04:55:58;100009.38;;;17.67;72.25
60417;BME280;46263;44.726;10.396;2023-05-10T04:58:23;100005.03;;;17.66;71.89
60417;BME280;46263;44.726;10.396;2023-05-10T05:00:49;100015.50;;;17.56;72.21
60417;BME280;46263;44.726;10.396;2023-05-10T05:03:14;100004.38;;;17.58;72.36
60417;BME280;46263;44.726;10.396;2023-05-10T05:05:40;100007.19;;;17.58;72.52
60417;BME280;46263;44.726;10.396;2023-05-10T05:08:05;100008.69;;;17.59;72.29
60417;BME280;46263;44.726;10.396;2023-05-10T05:10:31;100004.38;;;17.58;72.41
60417;BME280;46263;44.726;10.396;2023-05-10T05:12:57;100007.03;;;17.56;72.72
60417;BME280;46263;44.726;10.396;2023-05-10T05:15:22;100003.53;;;17.48;73.14
60417;BME280;46263;44.726;10.396;2023-05-10T05:17:48;100000.47;;;17.54;73.11
60417;BME280;46263;44.726;10.396;2023-05-10T05:20:13;100001.19;;;17.54;72.79
60417;BME280;46263;44.726;10.396;2023-05-10T05:22:38;100002.88;;;17.57;72.79
60417;BME280;46263;44.726;10.396;2023-05-10T05:25:04;100003.88;;;17.52;72.90
60417;BME280;46263;44.726;10.396;2023-05-10T05:27:31;100001.53;;;17.58;72.62
60417;BME280;46263;44.726;10.396;2023-05-10T05:29:57;99998.53;;;17.56;72.61
60417;BME280;46263;44.726;10.396;2023-05-10T05:32:24;100003.13;;;17.52;72.67
60417;BME280;46263;44.726;10.396;2023-05-10T05:34:50;100011.00;;;17.53;72.68
60417;BME280;46263;44.726;10.396;2023-05-10T05:37:19;100013.50;;;17.49;73.39
60417;BME280;46263;44.726;10.396;2023-05-10T05:39:46;100012.59;;;17.47;72.86
60417;BME280;46263;44.726;10.396;2023-05-10T05:42:12;100018.16;;;17.54;73.16
60417;BME280;46263;44.726;10.396;2023-05-10T05:44:39;100017.66;;;17.48;72.71
60417;BME280;46263;44.726;10.396;2023-05-10T05:47:05;100012.34;;;17.52;72.55
60417;BME280;46263;44.726;10.396;2023-05-10T05:49:31;100015.56;;;17.49;72.52
60417;BME280;46263;44.726;10.396;2023-05-10T05:52:00;100017.84;;;17.50;72.13
60417;BME280;46263;44.726;10.396;2023-05-10T05:54:26;100021.97;;;17.49;72.58
60417;BME280;46263;44.726;10.396;2023-05-10T05:56:59;100024.03;;;17.49;72.08
60417;BME280;46263;44.726;10.396;2023-05-10T05:59:25;100027.97;;;17.53;72.13
60417;BME280;46263;44.726;10.396;2023-05-10T06:01:50;100027.13;;;17.43;72.40
60417;BME280;46263;44.726;10.396;2023-05-10T06:04:16;100026.59;;;17.37;72.37
60417;BME280;46263;44.726;10.396;2023-05-10T06:06:42;100025.13;;;17.36;72.91
60417;BME280;46263;44.726;10.396;2023-05-10T06:09:08;100023.63;;;17.35;72.54
60417;BME280;46263;44.726;10.396;2023-05-10T06:11:34;100030.19;;;17.38;72.83
60417;BME280;46263;44.726;10.396;2023-05-10T06:14:00;100027.41;;;17.30;72.79
60417;BME280;46263;44.726;10.396;2023-05-10T06:16:25;100028.09;;;17.38;72.40
60417;BME280;46263;44.726;10.396;2023-05-10T06:18:51;100029.28;;;17.35;73.07
60417;BME280;46263;44.726;10.396;2023-05-10T06:21:17;100029.19;;;17.43;72.29
60417;BME280;46263;44.726;10.396;2023-05-10T06:23:42;100038.25;;;17.41;72.12
60417;BME280;46263;44.726;10.396;2023-05-10T06:26:09;100038.25;;;17.41;72.23
60417;BME280;46263;44.726;10.396;2023-05-10T06:28:34;100038.75;;;17.47;72.23
60417;BME280;46263;44.726;10.396;2023-05-10T06:31:00;100045.47;;;17.35;72.40
60417;BME280;46263;44.726;10.396;2023-05-10T06:33:25;100048.06;;;17.40;72.44
60417;BME280;46263;44.726;10.396;2023-05-10T06:35:51;100041.25;;;17.43;71.94
60417;BME280;46263;44.726;10.396;2023-05-10T06:38:17;100041.81;;;17.42;71.98
60417;BME280;46263;44.726;10.396;2023-05-10T06:40:43;100055.94;;;17.42;72.82
60417;BME280;46263;44.726;10.396;2023-05-10T06:43:08;100065.41;;;17.37;72.38
60417;BME280;46263;44.726;10.396;2023-05-10T06:45:34;100068.56;;;17.41;72.52
60417;BME280;46263;44.726;10.396;2023-05-10T06:47:59;100065.59;;;17.39;71.45
60417;BME280;46263;44.726;10.396;2023-05-10T06:50:25;100067.25;;;17.42;71.57
60417;BME280;46263;44.726;10.396;2023-05-10T06:52:51;100070.06;;;17.42;71.78
60417;BME280;46263;44.726;10.396;2023-05-10T06:55:16;100073.31;;;17.38;71.24
60417;BME280;46263;44.726;10.396;2023-05-10T06:57:42;100073.91;;;17.37;70.98
60417;BME280;46263;44.726;10.396;2023-05-10T07:00:08;100072.97;;;17.34;70.87
60417;BME280;46263;44.726;10.396;2023-05-10T07:02:35;100074.88;;;17.32;70.45
60417;BME280;46263;44.726;10.396;2023-05-10T07:05:00;100076.94;;;17.31;70.99
60417;BME280;46263;44.726;10.396;2023-05-10T07:07:26;100088.44;;;17.26;71.63
60417;BME280;46263;44.726;10.396;2023-05-10T07:09:51;100082.06;;;17.25;71.02
60417;BME280;46263;44.726;10.396;2023-05-10T07:12:17;100086.38;;;17.26;71.18
60417;BME280;46263;44.726;10.396;2023-05-10T07:14:43;100091.66;;;17.22;70.70
60417;BME280;46263;44.726;10.396;2023-05-10T07:17:09;100096.84;;;17.09;71.01
60417;BME280;46263;44.726;10.396;2023-05-10T07:19:35;100088.78;;;17.05;71.75
60417;BME280;46263;44.726;10.396;2023-05-10T07:22:01;100099.31;;;17.05;71.33
60417;BME280;46263;44.726;10.396;2023-05-10T07:24:26;100101.22;;;17.02;70.29
60417;BME280;46263;44.726;10.396;2023-05-10T07:26:52;100113.84;;;17.01;70.48
60417;BME280;46263;44.726;10.396;2023-05-10T07:29:17;100107.84;;;16.97;69.86
60417;BME280;46263;44.726;10.396;2023-05-10T07:31:43;100109.00;;;16.94;69.92
60417;BME280;46263;44.726;10.396;2023-05-10T07:34:08;100116.16;;;16.95;69.61
60417;BME280;46263;44.726;10.396;2023-05-10T07:36:34;100108.22;;;16.94;69.81
60417;BME280;46263;44.726;10.396;2023-05-10T07:39:00;100116.19;;;16.88;69.88
60417;BME280;46263;44.726;10.396;2023-05-10T07:41:26;100118.06;;;16.85;69.56
60417;BME280;46263;44.726;10.396;2023-05-10T07:43:51;100116.19;;;16.80;69.50
60417;BME280;46263;44.726;10.396;2023-05-10T07:46:17;100124.53;;;16.78;69.53
60417;BME280;46263;44.726;10.396;2023-05-10T07:48:44;100124.53;;;16.78;70.09
60417;BME280;46263;44.726;10.396;2023-05-10T07:51:11;100122.81;;;16.76;70.17
60417;BME280;46263;44.726;10.396;2023-05-10T07:53:37;100123.03;;;16.70;70.08
60417;BME280;46263;44.726;10.396;2023-05-10T07:58:47;100135.88;;;16.64;70.15
60417;BME280;46263;44.726;10.396;2023-05-10T08:01:13;100137.19;;;16.63;70.60
60417;BME280;46263;44.726;10.396;2023-05-10T08:03:38;100139.06;;;16.60;71.16
60417;BME280;46263;44.726;10.396;2023-05-10T08:06:04;100147.19;;;16.56;70.59
60417;BME280;46263;44.726;10.396;2023-05-10T08:08:29;100141.34;;;16.54;70.47
60417;BME280;46263;44.726;10.396;2023-05-10T08:10:55;100144.16;;;16.54;70.66
60417;BME280;46263;44.726;10.396;2023-05-10T08:13:21;100147.00;;;16.54;70.54
60417;BME280;46263;44.726;10.396;2023-05-10T08:15:46;100151.72;;;16.52;71.35
60417;BME280;46263;44.726;10.396;2023-05-10T08:18:12;100161.50;;;16.51;70.74
60417;BME280;46263;44.726;10.396;2023-05-10T08:20:38;100162.63;;;16.48;70.98
60417;BME280;46263;44.726;10.396;2023-05-10T08:23:03;100159.78;;;16.48;71.58
60417;BME280;46263;44.726;10.396;2023-05-10T08:25:29;100158.34;;;16.39;70.59
60417;BME280;46263;44.726;10.396;2023-05-10T08:27:54;100166.22;;;16.41;70.71
60417;BME280;46263;44.726;10.396;2023-05-10T08:30:19;100164.72;;;16.40;70.85
60417;BME280;46263;44.726;10.396;2023-05-10T08:32:45;100172.09;;;16.35;70.79
60417;BME280;46263;44.726;10.396;2023-05-10T08:35:10;100181.28;;;16.36;70.55
60417;BME280;46263;44.726;10.396;2023-05-10T08:37:36;100179.03;;;16.34;70.47
60417;BME280;46263;44.726;10.396;2023-05-10T08:40:01;100180.53;;;16.35;70.26
60417;BME280;46263;44.726;10.396;2023-05-10T08:42:30;100182.59;;;16.35;70.60
60417;BME280;46263;44.726;10.396;2023-05-10T08:44:57;100187.13;;;16.30;70.08
60417;BME280;46263;44.726;10.396;2023-05-10T08:47:22;100188.25;;;16.27;69.66
60417;BME280;46263;44.726;10.396;2023-05-10T08:49:48;100189.56;;;16.26;70.39
60417;BME280;46263;44.726;10.396;2023-05-10T08:52:16;100188.44;;;16.22;69.86
60417;BME280;46263;44.726;10.396;2023-05-10T08:54:42;100193.13;;;16.19;70.43
60417;BME280;46263;44.726;10.396;2023-05-10T08:57:09;100193.88;;;16.20;70.94
60417;BME280;46263;44.726;10.396;2023-05-10T08:59:35;100200.09;;;16.18;70.70
60417;BME280;46263;44.726;10.396;2023-05-10T09:02:04;100200.66;;;16.17;71.21
60417;BME280;46263;44.726;10.396;2023-05-10T09:04:30;100203.66;;;16.19;71.45
60417;BME280;46263;44.726;10.396;2023-05-10T09:06:56;100202.53;;;16.22;71.25
60417;BME280;46263;44.726;10.396;2023-05-10T09:09:23;100207.25;;;16.12;70.32
60417;BME280;46263;44.726;10.396;2023-05-10T09:11:51;100212.50;;;16.08;69.93
60417;BME280;46263;44.726;10.396;2023-05-10T09:14:17;100221.53;;;15.99;70.35
60417;BME280;46263;44.726;10.396;2023-05-10T09:16:43;100223.78;;;16.00;70.75
60417;BME280;46263;44.726;10.396;2023-05-10T09:19:10;100220.97;;;16.00;70.90
60417;BME280;46263;44.726;10.396;2023-05-10T09:21:36;100229.63;;;16.02;70.89
60417;BME280;46263;44.726;10.396;2023-05-10T09:24:08;100223.22;;;15.95;70.37
60417;BME280;46263;44.726;10.396;2023-05-10T09:26:35;100223.41;;;15.96;70.78
60417;BME280;46263;44.726;10.396;2023-05-10T09:29:01;100224.72;;;15.95;71.06
60417;BME280;46263;44.726;10.396;2023-05-10T09:31:44;100224.34;;;15.99;70.36
60417;BME280;46263;44.726;10.396;2023-05-10T09:34:11;100229.25;;;15.91;70.19
60417;BME280;46263;44.726;10.396;2023-05-10T09:36:51;100234.50;;;15.87;70.96
60417;BME280;46263;44.726;10.396;2023-05-10T09:39:17;100233.72;;;15.79;70.66
60417;BME280;46263;44.726;10.396;2023-05-10T09:41:43;100235.97;;;15.81;71.45
60417;BME280;46263;44.726;10.396;2023-05-10T09:44:09;100232.41;;;15.80;71.25
60417;BME280;46263;44.726;10.396;2023-05-10T09:46:37;100232.41;;;15.80;70.82
60417;BME280;46263;44.726;10.396;2023-05-10T09:49:03;100233.72;;;15.79;70.98
60417;BME280;46263;44.726;10.396;2023-05-10T09:51:28;100237.28;;;15.80;71.24
60417;BME280;46263;44.726;10.396;2023-05-10T09:54:16;100235.44;;;15.82;71.55
60417;BME280;46263;44.726;10.396;2023-05-10T09:56:42;100234.09;;;15.83;71.09
60417;BME280;46263;44.726;10.396;2023-05-10T09:59:10;100235.97;;;15.81;71.07
60417;BME280;46263;44.726;10.396;2023-05-10T10:01:36;100235.81;;;15.79;71.44
60417;BME280;46263;44.726;10.396;2023-05-10T10:04:07;100242.56;;;15.83;71.64
60417;BME280;46263;44.726;10.396;2023-05-10T10:06:39;100227.34;;;15.86;71.58
60417;BME280;46263;44.726;10.396;2023-05-10T10:09:08;100234.88;;;15.91;71.54
60417;BME280;46263;44.726;10.396;2023-05-10T10:11:35;100231.84;;;15.96;71.74
60417;BME280;46263;44.726;10.396;2023-05-10T10:14:01;100234.66;;;15.96;71.08
60417;BME280;46263;44.726;10.396;2023-05-10T10:16:29;100231.47;;;16.00;70.99
60417;BME280;46263;44.726;10.396;2023-05-10T10:18:55;100236.38;;;15.99;70.95
60417;BME280;46263;44.726;10.396;2023-05-10T10:21:21;100237.31;;;16.02;70.55
60417;BME280;46263;44.726;10.396;2023-05-10T10:23:47;100235.25;;;16.02;71.10
60417;BME280;46263;44.726;10.396;2023-05-10T10:26:13;100238.63;;;16.01;70.76
60417;BME280;46263;44.726;10.396;2023-05-10T10:28:48;100237.50;;;15.96;71.46
60417;BME280;46263;44.726;10.396;2023-05-10T10:31:28;100235.63;;;15.77;70.99
60417;BME280;46263;44.726;10.396;2023-05-10T10:34:06;100239.53;;;15.74;71.84
60417;BME280;46263;44.726;10.396;2023-05-10T10:36:40;100236.34;;;15.77;72.26
60417;BME280;46263;44.726;10.396;2023-05-10T10:39:09;100234.47;;;15.80;70.87
60417;BME280;46263;44.726;10.396;2023-05-10T10:41:37;100238.25;;;15.82;70.46
60417;BME280;46263;44.726;10.396;2023-05-10T10:44:28;100235.06;;;15.86;71.17
60417;BME280;46263;44.726;10.396;2023-05-10T10:49:38;100228.47;;;15.91;71.51
60417;BME280;46263;44.726;10.396;2023-05-10T10:52:26;100232.22;;;15.93;70.50
60417;BME280;46263;44.726;10.396;2023-05-10T10:57:55;100226.41;;;15.98;70.82
60417;BME280;46263;44.726;10.396;2023-05-10T11:00:36;100224.16;;;15.90;70.94
60417;BME280;46263;44.726;10.396;2023-05-10T11:03:15;100220.59;;;15.89;71.58
60417;BME280;46263;44.726;10.396;2023-05-10T11:05:48;100216.81;;;15.94;71.82
60417;BME280;46263;44.726;10.396;2023-05-10T11:08:27;100220.19;;;16.00;70.18
60417;BME280;46263;44.726;10.396;2023-05-10T11:15:54;100213.84;;;16.07;69.80
60417;BME280;46263;44.726;10.396;2023-05-10T11:18:28;100207.44;;;16.06;70.87
60417;BME280;46263;44.726;10.396;2023-05-10T11:21:01;100216.06;;;16.08;70.36
60417;BME280;46263;44.726;10.396;2023-05-10T11:26:07;100213.28;;;15.94;70.79
60417;BME280;46263;44.726;10.396;2023-05-10T11:28:43;100203.66;;;15.82;70.72
60417;BME280;46263;44.726;10.396;2023-05-10T11:31:09;100209.47;;;15.76;71.26
60417;BME280;46263;44.726;10.396;2023-05-10T11:33:45;100214.75;;;15.72;71.46
60417;BME280;46263;44.726;10.396;2023-05-10T11:36:13;100213.44;;;15.66;71.69
60417;BME280;46263;44.726;10.396;2023-05-10T11:38:39;100213.06;;;15.69;71.46
60417;BME280;46263;44.726;10.396;2023-05-10T11:41:04;100206.47;;;15.67;71.29
60417;BME280;46263;44.726;10.396;2023-05-10T11:43:30;100204.59;;;15.69;71.59
60417;BME280;46263;44.726;10.396;2023-05-10T11:45:56;100198.78;;;15.75;71.46
60417;BME280;46263;44.726;10.396;2023-05-10T11:48:21;100204.22;;;15.73;71.94
60417;BME280;46263;44.726;10.396;2023-05-10T11:50:49;100195.78;;;15.80;72.27
60417;BME280;46263;44.726;10.396;2023-05-10T11:53:15;100199.72;;;15.85;72.63
60417;BME280;46263;44.726;10.396;2023-05-10T11:55:41;100205.19;;;15.90;71.51
60417;BME280;46263;44.726;10.396;2023-05-10T11:58:06;100202.94;;;15.96;70.84
60417;BME280;46263;44.726;10.396;2023-05-10T12:00:32;100199.00;;;15.99;70.88
60417;BME280;46263;44.726;10.396;2023-05-10T12:03:00;100205.19;;;16.05;70.67
60417;BME280;46263;44.726;10.396;2023-05-10T12:05:26;100198.22;;;16.06;71.05
60417;BME280;46263;44.726;10.396;2023-05-10T12:07:51;100202.56;;;16.07;71.48
60417;BME280;46263;44.726;10.396;2023-05-10T12:10:24;100205.19;;;16.05;71.28
60417;BME280;46263;44.726;10.396;2023-05-10T12:12:52;100193.13;;;16.12;71.55
60417;BME280;46263;44.726;10.396;2023-05-10T12:15:19;100192.94;;;16.10;71.46
60417;BME280;46263;44.726;10.396;2023-05-10T12:17:46;100195.00;;;16.17;71.32
60417;BME280;46263;44.726;10.396;2023-05-10T12:20:23;100193.69;;;16.18;71.04
60417;BME280;46263;44.726;10.396;2023-05-10T12:22:54;100201.03;;;16.21;70.78
60417;BME280;46263;44.726;10.396;2023-05-10T12:25:22;100195.38;;;16.21;71.09
60417;BME280;46263;44.726;10.396;2023-05-10T12:27:52;100193.88;;;16.20;71.42
60417;BME280;46263;44.726;10.396;2023-05-10T12:30:25;100202.88;;;16.26;71.00
60417;BME280;46263;44.726;10.396;2023-05-10T12:32:51;100190.53;;;16.29;70.99
60417;BME280;46263;44.726;10.396;2023-05-10T12:35:17;100191.25;;;16.29;71.28
60417;BME280;46263;44.726;10.396;2023-05-10T12:37:47;100192.75;;;16.30;70.93
60417;BME280;46263;44.726;10.396;2023-05-10T12:40:12;100189.38;;;16.32;71.80
60417;BME280;46263;44.726;10.396;2023-05-10T12:42:39;100190.88;;;16.33;71.56
60417;BME280;46263;44.726;10.396;2023-05-10T12:45:06;100189.00;;;16.35;70.96
60417;BME280;46263;44.726;10.396;2023-05-10T12:47:32;100191.81;;;16.35;70.52
60417;BME280;46263;44.726;10.396;2023-05-10T12:49:59;100195.00;;;16.39;71.37
60417;BME280;46263;44.726;10.396;2023-05-10T12:52:26;100186.34;;;16.45;71.59
60417;BME280;46263;44.726;10.396;2023-05-10T12:54:52;100190.47;;;16.51;71.68
60417;BME280;46263;44.726;10.396;2023-05-10T12:57:18;100186.31;;;16.52;71.89
60417;BME280;46263;44.726;10.396;2023-05-10T12:59:43;100184.44;;;16.55;71.17
60417;BME280;46263;44.726;10.396;2023-05-10T13:02:09;100185.19;;;16.55;70.58
60417;BME280;46263;44.726;10.396;2023-05-10T13:04:35;100188.59;;;16.54;70.25
60417;BME280;46263;44.726;10.396;2023-05-10T13:07:05;100192.72;;;16.53;69.72
60417;BME280;46263;44.726;10.396;2023-05-10T13:09:30;100185.56;;;16.52;70.03
60417;BME280;46263;44.726;10.396;2023-05-10T13:11:55;100186.69;;;16.56;70.54